Time;durP1;ratioP1;P1;durP2;ratioP2;P2;SDS_P1;SDS_P2;PMS_P1;PMS_P2;Temp;Humidity;BMP_temperature;BMP_pressure;BME280_temperature;BME280_humidity;BME280_pressure;Samples;Min_cycle;Max_cycle;Signal;HPM_P1;HPM_P2
2023/06/08 00:03:09;;;;;;;19.00;15.93;;;;;;;;;;10148198;28;20457;-69
2023/06/08 00:08:03;;;;;;;18.02;16.17;;;;;;;;;;10141320;28;20071;-70
2023/06/08 00:12:57;;;;;;;19.38;15.70;;;;;;;;;;10139914;28;20051;-69
2023/06/08 00:17:52;;;;;;;16.75;14.23;;;;;;;;;;10147817;28;20048;-69
2023/06/08 00:22:47;;;;;;;17.52;15.00;;;;;;;;;;10140734;28;20598;-69
2023/06/08 00:27:40;;;;;;;19.15;17.17;;;;;;;;;;10147401;28;20077;-69
2023/06/08 00:32:33;;;;;;;19.50;15.40;;;;;;;;;;10135368;28;20064;-69
2023/06/08 00:37:28;;;;;;;20.25;16.70;;;;;;;;;;10133375;28;20123;-69
2023/06/08 00:42:21;;;;;;;21.92;15.82;;;;;;;;;;10146466;28;20044;-69
2023/06/08 00:47:14;;;;;;;20.58;16.13;;;;;;;;;;10126198;28;20407;-69
2023/06/08 00:52:10;;;;;;;22.25;15.63;;;;;;;;;;10146741;28;20115;-70
2023/06/08 00:57:05;;;;;;;18.30;13.98;;;;;;;;;;10141769;28;20427;-68
2023/06/08 01:01:59;;;;;;;16.40;12.23;;;;;;;;;;10142957;28;20048;-68
2023/06/08 01:07:25;;;;;;;12.65;11.35;;;;;;;;;;10138224;28;20052;-68
2023/06/08 01:12:35;;;;;;;13.73;11.63;;;;;;;;;;10140199;28;20103;-68
2023/06/08 01:17:40;;;;;;;14.05;12.73;;;;;;;;;;10140593;28;20052;-68
2023/06/08 01:23:03;;;;;;;13.05;10.88;;;;;;;;;;10145398;28;20062;-68
2023/06/08 01:28:13;;;;;;;11.93;9.90;;;;;;;;;;10136060;28;20434;-67
2023/06/08 01:33:07;;;;;;;13.70;9.98;;;;;;;;;;10119715;28;20061;-68
2023/06/08 01:38:12;;;;;;;13.30;10.20;;;;;;;;;;10141033;28;20059;-67
2023/06/08 01:43:08;;;;;;;9.27;8.38;;;;;;;;;;10093121;28;20504;-68
2023/06/08 01:48:06;;;;;;;11.48;8.63;;;;;;;;;;10107769;28;20136;-68
2023/06/08 01:53:00;;;;;;;18.73;8.67;;;;;;;;;;10133999;28;20438;-68
2023/06/08 01:57:54;;;;;;;8.38;7.40;;;;;;;;;;10120753;28;20067;-68
2023/06/08 02:02:47;;;;;;;13.57;8.82;;;;;;;;;;10144908;28;20055;-68
2023/06/08 02:07:41;;;;;;;12.48;8.20;;;;;;;;;;10134075;28;20056;-68
2023/06/08 02:12:35;;;;;;;11.02;9.05;;;;;;;;;;10135101;28;20106;-68
2023/06/08 02:17:35;;;;;;;9.75;7.95;;;;;;;;;;10143125;28;20411;-68
2023/06/08 02:22:30;;;;;;;9.05;8.25;;;;;;;;;;10134326;28;20054;-68
2023/06/08 02:27:24;;;;;;;12.57;8.57;;;;;;;;;;10141780;28;20063;-68
2023/06/08 02:32:17;;;;;;;10.05;9.15;;;;;;;;;;10134946;28;20124;-68
2023/06/08 02:37:12;;;;;;;11.30;9.32;;;;;;;;;;10143046;28;20509;-68
2023/06/08 02:42:06;;;;;;;10.82;8.65;;;;;;;;;;10139625;28;20056;-68
2023/06/08 02:46:59;;;;;;;12.38;9.90;;;;;;;;;;10113578;28;20067;-68
2023/06/08 02:51:54;;;;;;;10.77;9.68;;;;;;;;;;10131591;28;20080;-68
2023/06/08 02:56:48;;;;;;;12.73;11.40;;;;;;;;;;10137185;28;20057;-68
2023/06/08 03:01:52;;;;;;;13.93;11.50;;;;;;;;;;10138189;28;20074;-69
2023/06/08 03:06:53;;;;;;;13.60;11.93;;;;;;;;;;10142136;28;20092;-69
2023/06/08 03:11:48;;;;;;;17.25;12.18;;;;;;;;;;10130936;28;20055;-68
2023/06/08 03:16:45;;;;;;;16.00;13.35;;;;;;;;;;10137780;28;20049;-68
2023/06/08 03:21:41;;;;;;;14.85;13.30;;;;;;;;;;10159046;28;20522;-69
2023/06/08 03:26:35;;;;;;;22.98;15.98;;;;;;;;;;10141556;28;20060;-68
2023/06/08 03:31:36;;;;;;;17.08;12.48;;;;;;;;;;10107982;28;20131;-68
2023/06/08 03:36:35;;;;;;;12.55;11.02;;;;;;;;;;10096174;28;20045;-69
2023/06/08 03:41:35;;;;;;;13.80;10.48;;;;;;;;;;10119749;28;20190;-67
2023/06/08 03:46:29;;;;;;;12.35;10.13;;;;;;;;;;10107667;28;20049;-68
2023/06/08 03:51:25;;;;;;;13.73;10.23;;;;;;;;;;10148520;28;20053;-68
2023/06/08 03:56:18;;;;;;;16.00;10.75;;;;;;;;;;10146490;28;20069;-67
2023/06/08 04:01:12;;;;;;;10.18;8.48;;;;;;;;;;10144087;28;20048;-67
2023/06/08 04:06:08;;;;;;;8.95;6.38;;;;;;;;;;10139838;28;20056;-67
2023/06/08 04:11:02;;;;;;;8.10;5.10;;;;;;;;;;10131453;28;20131;-68
2023/06/08 04:15:56;;;;;;;7.80;4.68;;;;;;;;;;10124361;28;20511;-68
2023/06/08 04:20:50;;;;;;;5.25;4.75;;;;;;;;;;10139497;28;20037;-68
2023/06/08 04:25:43;;;;;;;11.10;5.65;;;;;;;;;;10096625;28;20069;-68
2023/06/08 04:30:37;;;;;;;6.25;4.85;;;;;;;;;;10144560;28;20076;-69
2023/06/08 04:35:32;;;;;;;8.85;5.10;;;;;;;;;;10146124;28;20072;-68
2023/06/08 04:40:33;;;;;;;14.38;6.78;;;;;;;;;;10119954;28;20053;-69
2023/06/08 04:45:26;;;;;;;7.25;4.85;;;;;;;;;;10108637;28;20040;-69
2023/06/08 04:50:19;;;;;;;9.80;5.22;;;;;;;;;;10122463;28;20659;-68
2023/06/08 04:55:16;;;;;;;11.30;5.18;;;;;;;;;;10108955;28;20053;-68
2023/06/08 05:00:14;;;;;;;8.65;5.50;;;;;;;;;;10127896;28;20067;-68
2023/06/08 05:05:08;;;;;;;10.73;7.20;;;;;;;;;;10126683;28;20099;-68
2023/06/08 05:10:02;;;;;;;13.35;8.48;;;;;;;;;;10117469;28;20127;-67
2023/06/08 05:14:56;;;;;;;10.13;9.02;;;;;;;;;;10136787;28;20076;-68
2023/06/08 05:19:53;;;;;;;12.73;9.13;;;;;;;;;;10110625;28;20064;-68
2023/06/08 05:24:46;;;;;;;11.50;10.35;;;;;;;;;;10113747;28;20060;-68
2023/06/08 05:29:43;;;;;;;14.27;10.18;;;;;;;;;;10130811;28;20491;-67
2023/06/08 05:34:36;;;;;;;12.65;11.35;;;;;;;;;;10109955;28;20538;-68
2023/06/08 05:39:29;;;;;;;18.13;12.48;;;;;;;;;;10124291;28;20053;-67
2023/06/08 05:44:22;;;;;;;15.23;12.13;;;;;;;;;;10129405;28;20432;-68
2023/06/08 05:49:16;;;;;;;14.45;12.77;;;;;;;;;;10123235;28;20064;-67
2023/06/08 05:54:10;;;;;;;16.02;13.32;;;;;;;;;;10126555;28;20092;-67
2023/06/08 05:59:04;;;;;;;19.38;13.57;;;;;;;;;;10124335;28;20067;-69
2023/06/08 06:03:59;;;;;;;17.85;14.55;;;;;;;;;;10129416;28;20121;-66
2023/06/08 06:08:52;;;;;;;24.00;14.93;;;;;;;;;;10130021;28;20052;-67
2023/06/08 06:13:46;;;;;;;18.17;13.55;;;;;;;;;;10140708;28;20663;-67
2023/06/08 06:18:39;;;;;;;16.92;15.18;;;;;;;;;;10134921;28;20058;-67
2023/06/08 06:23:32;;;;;;;22.77;12.27;;;;;;;;;;10129751;28;20087;-67
2023/06/08 06:28:27;;;;;;;14.98;11.98;;;;;;;;;;10131429;28;20053;-67
2023/06/08 06:33:21;;;;;;;14.02;10.40;;;;;;;;;;10127503;28;20057;-67
2023/06/08 06:38:15;;;;;;;10.60;8.48;;;;;;;;;;10134162;28;20466;-66
2023/06/08 06:43:09;;;;;;;9.93;8.95;;;;;;;;;;10136296;28;20049;-67
2023/06/08 06:48:11;;;;;;;10.75;9.63;;;;;;;;;;10140574;28;20094;-68
2023/06/08 06:53:05;;;;;;;14.45;10.32;;;;;;;;;;10135021;28;20448;-66
2023/06/08 06:58:00;;;;;;;13.27;11.73;;;;;;;;;;10141948;28;20063;-67
2023/06/08 07:02:55;;;;;;;17.70;9.80;;;;;;;;;;10149172;28;20057;-66
2023/06/08 07:07:48;;;;;;;13.45;11.40;;;;;;;;;;10142995;28;20041;-67
2023/06/08 07:12:42;;;;;;;9.95;8.95;;;;;;;;;;10136648;28;20563;-67
2023/06/08 07:17:37;;;;;;;11.38;10.27;;;;;;;;;;10143504;28;20060;-68
2023/06/08 07:22:30;;;;;;;12.13;10.18;;;;;;;;;;10128209;28;20423;-68
2023/06/08 07:27:44;;;;;;;32.08;13.35;;;;;;;;;;10149360;28;20041;-68
2023/06/08 07:32:37;;;;;;;12.43;11.23;;;;;;;;;;10127813;28;20458;-67
2023/06/08 07:37:31;;;;;;;11.27;9.25;;;;;;;;;;10126010;28;20044;-69
2023/06/08 07:42:24;;;;;;;15.80;10.85;;;;;;;;;;10145237;28;20719;-67
2023/06/08 07:47:18;;;;;;;10.32;9.25;;;;;;;;;;10109879;28;20052;-67
2023/06/08 07:52:11;;;;;;;11.00;9.30;;;;;;;;;;10126103;28;20041;-67
2023/06/08 07:57:06;;;;;;;8.82;7.93;;;;;;;;;;10106659;28;20053;-65
2023/06/08 08:02:01;;;;;;;10.40;9.32;;;;;;;;;;10128771;28;20132;-67
2023/06/08 08:06:54;;;;;;;9.48;7.72;;;;;;;;;;10115112;28;20044;-67
2023/06/08 08:11:48;;;;;;;11.02;9.93;;;;;;;;;;10139016;28;20072;-66
2023/06/08 08:16:41;;;;;;;14.48;10.70;;;;;;;;;;10110480;28;20048;-66
2023/06/08 08:21:35;;;;;;;12.98;11.63;;;;;;;;;;10113661;28;20136;-67
2023/06/08 08:26:29;;;;;;;13.38;12.07;;;;;;;;;;10110410;28;20049;-66
2023/06/08 08:31:24;;;;;;;14.23;12.43;;;;;;;;;;10116859;28;20051;-67
2023/06/08 08:36:17;;;;;;;15.88;14.18;;;;;;;;;;10142443;28;20056;-67
2023/06/08 08:41:14;;;;;;;14.95;13.35;;;;;;;;;;10148621;28;20058;-68
2023/06/08 08:46:07;;;;;;;21.00;15.27;;;;;;;;;;10145542;28;20075;-68
2023/06/08 08:51:01;;;;;;;15.35;13.75;;;;;;;;;;10130273;28;20057;-68
2023/06/08 08:55:55;;;;;;;14.68;13.27;;;;;;;;;;10123203;28;20053;-69
2023/06/08 09:00:49;;;;;;;14.55;12.18;;;;;;;;;;10138746;28;20052;-68
2023/06/08 09:05:46;;;;;;;13.43;12.02;;;;;;;;;;10140233;28;20095;-68
2023/06/08 09:10:39;;;;;;;14.70;11.45;;;;;;;;;;10110325;28;20499;-67
2023/06/08 09:15:37;;;;;;;14.45;12.45;;;;;;;;;;10126598;28;20048;-67
2023/06/08 09:20:32;;;;;;;14.18;11.77;;;;;;;;;;10139807;28;20049;-67
2023/06/08 09:25:40;;;;;;;19.85;12.50;;;;;;;;;;10139515;28;20045;-67
2023/06/08 09:30:35;;;;;;;11.07;10.05;;;;;;;;;;10144701;28;20135;-66
2023/06/08 09:35:29;;;;;;;11.73;10.38;;;;;;;;;;10132292;28;20084;-67
2023/06/08 09:40:22;;;;;;;11.55;9.45;;;;;;;;;;10129881;28;20562;-68
2023/06/08 09:45:17;;;;;;;11.45;8.40;;;;;;;;;;10146167;28;20048;-68
2023/06/08 09:50:13;;;;;;;11.02;8.13;;;;;;;;;;10144567;28;20060;-67
2023/06/08 09:55:10;;;;;;;9.73;8.77;;;;;;;;;;10134702;28;21588;-68
2023/06/08 10:00:16;;;;;;;8.50;6.93;;;;;;;;;;10141840;28;20529;-67
2023/06/08 10:05:12;;;;;;;8.35;7.47;;;;;;;;;;10107087;28;20052;-65
2023/06/08 10:10:13;;;;;;;7.70;6.40;;;;;;;;;;10103223;28;20049;-65
2023/06/08 10:15:08;;;;;;;9.07;7.15;;;;;;;;;;10117330;28;20072;-65
2023/06/08 10:20:01;;;;;;;6.43;5.60;;;;;;;;;;10122552;28;20045;-66
2023/06/08 10:24:56;;;;;;;6.10;4.10;;;;;;;;;;10111346;28;20049;-65
2023/06/08 10:30:03;;;;;;;8.27;6.00;;;;;;;;;;10137100;28;20675;-65
2023/06/08 10:34:58;;;;;;;;;;;;;;;;;;10120111;28;20045;-65
2023/06/08 10:39:52;;;;;;;6.82;6.13;;;;;;;;;;10127693;28;19927;-65
2023/06/08 10:44:56;;;;;;;9.80;6.63;;;;;;;;;;10150606;28;20522;-65
2023/06/08 10:50:00;;;;;;;8.32;5.15;;;;;;;;;;10156924;28;20053;-64
2023/06/08 10:54:57;;;;;;;20.80;5.43;;;;;;;;;;10150803;28;20051;-65
2023/06/08 10:59:54;;;;;;;9.55;4.97;;;;;;;;;;10130463;28;20053;-67
2023/06/08 11:04:50;;;;;;;6.85;4.63;;;;;;;;;;10115048;28;20053;-68
2023/06/08 11:09:51;;;;;;;7.43;4.93;;;;;;;;;;10148202;28;20045;-67
2023/06/08 11:14:44;;;;;;;9.10;5.25;;;;;;;;;;10139974;28;20049;-68
2023/06/08 11:19:38;;;;;;;5.70;5.10;;;;;;;;;;10129945;28;20052;-66
2023/06/08 11:24:31;;;;;;;6.15;5.55;;;;;;;;;;10137125;28;20155;-67
2023/06/08 11:29:26;;;;;;;6.43;5.82;;;;;;;;;;10129503;28;20064;-67
2023/06/08 11:34:20;;;;;;;6.63;4.88;;;;;;;;;;10144017;28;20116;-67
2023/06/08 11:39:13;;;;;;;5.38;3.65;;;;;;;;;;10149064;28;20053;-67
2023/06/08 11:44:06;;;;;;;5.25;4.28;;;;;;;;;;10127394;28;20055;-67
2023/06/08 11:49:10;;;;;;;8.23;4.55;;;;;;;;;;10150838;28;20135;-68
2023/06/08 11:54:04;;;;;;;4.20;3.55;;;;;;;;;;10150622;28;20052;-67
2023/06/08 11:58:58;;;;;;;6.13;5.00;;;;;;;;;;10150687;28;20388;-67
2023/06/08 12:03:52;;;;;;;4.30;2.78;;;;;;;;;;10124667;28;20053;-67
2023/06/08 12:08:48;;;;;;;2.80;2.00;;;;;;;;;;10137374;28;20529;-67
2023/06/08 12:13:43;;;;;;;2.97;1.90;;;;;;;;;;10149977;28;20051;-67
2023/06/08 12:18:38;;;;;;;1.67;1.58;;;;;;;;;;10149454;28;20135;-67
2023/06/08 12:23:32;;;;;;;5.50;2.33;;;;;;;;;;10149353;28;20419;-67
2023/06/08 12:28:26;;;;;;;2.97;2.20;;;;;;;;;;10149943;28;20063;-68
2023/06/08 12:33:20;;;;;;;3.28;1.65;;;;;;;;;;10148333;28;20076;-67
2023/06/08 12:38:14;;;;;;;3.58;2.10;;;;;;;;;;10129725;28;20416;-68
2023/06/08 12:43:07;;;;;;;2.42;2.22;;;;;;;;;;10116336;28;20102;-68
2023/06/08 12:48:00;;;;;;;9.35;1.90;;;;;;;;;;10130440;28;20049;-68
2023/06/08 12:52:54;;;;;;;3.07;2.10;;;;;;;;;;10148382;28;20511;-68
2023/06/08 12:57:51;;;;;;;2.92;1.95;;;;;;;;;;10147880;28;20069;-68
2023/06/08 13:02:44;;;;;;;3.42;2.03;;;;;;;;;;10134747;28;20451;-68
2023/06/08 13:07:38;;;;;;;4.15;2.38;;;;;;;;;;10115859;28;20048;-67
2023/06/08 13:12:31;;;;;;;3.73;2.20;;;;;;;;;;10141776;28;20048;-68
2023/06/08 13:17:26;;;;;;;3.42;2.45;;;;;;;;;;10147476;28;20044;-67
2023/06/08 13:22:23;;;;;;;2.97;2.10;;;;;;;;;;10139776;28;20119;-67
2023/06/08 13:27:16;;;;;;;1.98;1.77;;;;;;;;;;10144507;28;20079;-68
2023/06/08 13:32:10;;;;;;;2.37;2.17;;;;;;;;;;10136423;28;20068;-68
2023/06/08 13:37:05;;;;;;;3.72;1.92;;;;;;;;;;10146565;28;20337;-67
2023/06/08 13:41:59;;;;;;;;;;;;;;;;;;10147990;28;20056;-67
2023/06/08 13:46:53;;;;;;;4.10;2.28;;;;;;;;;;10146702;28;19920;-67
2023/06/08 13:51:47;;;;;;;5.28;2.38;;;;;;;;;;10146317;28;20049;-66
2023/06/08 13:56:41;;;;;;;3.15;2.50;;;;;;;;;;10144593;28;20136;-66
2023/06/08 14:01:34;;;;;;;4.65;2.50;;;;;;;;;;10115745;28;20076;-66
2023/06/08 14:06:27;;;;;;;8.30;2.15;;;;;;;;;;10136369;28;20107;-68
2023/06/08 14:11:21;;;;;;;4.32;2.30;;;;;;;;;;10145526;28;20060;-69
2023/06/08 14:16:16;;;;;;;5.03;2.22;;;;;;;;;;10145770;28;20125;-68
2023/06/08 14:21:08;;;;;;;6.53;2.92;;;;;;;;;;10144963;28;20048;-68
2023/06/08 14:26:03;;;;;;;5.03;2.47;;;;;;;;;;10145154;28;20483;-68
2023/06/08 14:30:56;;;;;;;9.00;2.80;;;;;;;;;;10145310;28;20078;-68
2023/06/08 14:35:49;;;;;;;3.10;2.80;;;;;;;;;;10139457;28;20072;-69
2023/06/08 14:40:43;;;;;;;3.08;2.63;;;;;;;;;;10129714;28;20182;-68
2023/06/08 14:45:37;;;;;;;3.25;2.83;;;;;;;;;;10124225;28;20076;-68
2023/06/08 14:50:32;;;;;;;3.85;3.15;;;;;;;;;;10144684;28;20531;-68
2023/06/08 14:55:24;;;;;;;3.08;2.42;;;;;;;;;;10144911;28;20106;-68
2023/06/08 15:00:22;;;;;;;2.63;2.42;;;;;;;;;;10131376;28;20515;-67
2023/06/08 15:05:16;;;;;;;2.60;2.38;;;;;;;;;;10144623;28;20075;-68
2023/06/08 15:10:11;;;;;;;3.20;2.78;;;;;;;;;;10122315;28;20047;-68
2023/06/08 15:15:08;;;;;;;2.95;2.58;;;;;;;;;;10151128;28;20071;-68
2023/06/08 15:20:05;;;;;;;4.88;2.88;;;;;;;;;;10151614;28;20140;-68
2023/06/08 15:25:00;;;;;;;5.13;2.88;;;;;;;;;;10152200;28;20106;-68
2023/06/08 15:29:53;;;;;;;7.45;2.85;;;;;;;;;;10152032;28;20056;-68
2023/06/08 15:34:46;;;;;;;2.70;2.50;;;;;;;;;;10151051;28;20044;-68
2023/06/08 15:39:39;;;;;;;3.13;2.65;;;;;;;;;;10149768;28;20049;-69
2023/06/08 15:44:32;;;;;;;3.53;2.60;;;;;;;;;;10149932;28;20048;-68
2023/06/08 15:49:25;;;;;;;3.15;2.85;;;;;;;;;;10139318;28;20063;-68
2023/06/08 15:54:19;;;;;;;4.22;2.85;;;;;;;;;;10149656;28;20115;-68
2023/06/08 15:59:12;;;;;;;3.15;2.85;;;;;;;;;;10136715;28;20458;-68
2023/06/08 16:04:06;;;;;;;5.28;2.90;;;;;;;;;;10150763;28;20438;-69
2023/06/08 16:09:01;;;;;;;4.50;2.72;;;;;;;;;;10149386;28;20075;-68
2023/06/08 16:13:56;;;;;;;3.10;2.70;;;;;;;;;;10150120;28;20056;-68
2023/06/08 16:18:51;;;;;;;3.38;2.20;;;;;;;;;;10142552;28;20056;-69
2023/06/08 16:23:45;;;;;;;5.60;2.45;;;;;;;;;;10114798;28;20057;-68
2023/06/08 16:28:41;;;;;;;3.80;2.38;;;;;;;;;;10146800;28;20064;-68
2023/06/08 16:33:36;;;;;;;5.13;2.88;;;;;;;;;;10149589;28;20054;-67
2023/06/08 16:38:30;;;;;;;7.22;3.40;;;;;;;;;;10146700;28;20060;-69
2023/06/08 16:43:24;;;;;;;3.92;3.33;;;;;;;;;;10132160;28;20047;-68
2023/06/08 16:48:18;;;;;;;6.60;3.50;;;;;;;;;;10133054;28;20068;-65
2023/06/08 16:53:12;;;;;;;6.65;3.40;;;;;;;;;;10121309;28;20049;-65
2023/06/08 16:58:06;;;;;;;3.85;2.90;;;;;;;;;;10131350;28;20052;-67
2023/06/08 17:02:59;;;;;;;4.28;3.40;;;;;;;;;;10124297;28;20128;-67
2023/06/08 17:07:53;;;;;;;3.25;2.95;;;;;;;;;;10108691;28;20106;-67
2023/06/08 17:12:48;;;;;;;6.13;3.15;;;;;;;;;;10112169;28;20060;-67
2023/06/08 17:17:41;;;;;;;6.25;3.67;;;;;;;;;;10134324;28;20373;-68
2023/06/08 17:22:35;;;;;;;4.38;3.92;;;;;;;;;;10147669;28;20059;-67
2023/06/08 17:27:29;;;;;;;3.80;3.40;;;;;;;;;;10143080;28;20458;-67
2023/06/08 17:32:22;;;;;;;4.63;3.33;;;;;;;;;;10147228;28;20483;-68
2023/06/08 17:37:16;;;;;;;3.25;2.95;;;;;;;;;;10145974;28;20454;-67
2023/06/08 17:42:10;;;;;;;4.65;2.80;;;;;;;;;;10136814;28;20080;-67
2023/06/08 17:47:05;;;;;;;4.38;3.28;;;;;;;;;;10117906;28;20054;-67
2023/06/08 17:51:59;;;;;;;3.55;2.97;;;;;;;;;;10127668;28;20078;-68
2023/06/08 17:56:52;;;;;;;2.85;2.65;;;;;;;;;;10112852;28;20103;-67
2023/06/08 18:01:45;;;;;;;5.97;3.30;;;;;;;;;;10129785;28;20045;-68
2023/06/08 18:06:40;;;;;;;3.92;3.55;;;;;;;;;;10123228;28;20071;-68
2023/06/08 18:11:34;;;;;;;4.40;3.33;;;;;;;;;;10120112;28;20441;-67
2023/06/08 18:16:28;;;;;;;4.65;2.90;;;;;;;;;;10117965;28;20045;-68
2023/06/08 18:21:21;;;;;;;3.88;3.58;;;;;;;;;;10120696;28;20446;-67
2023/06/08 18:26:15;;;;;;;3.65;2.95;;;;;;;;;;10144094;28;20044;-67
2023/06/08 18:31:11;;;;;;;3.35;3.05;;;;;;;;;;10145285;28;20064;-67
2023/06/08 18:36:08;;;;;;;5.75;3.30;;;;;;;;;;10145725;28;20059;-67
2023/06/08 18:41:02;;;;;;;4.43;2.83;;;;;;;;;;10144729;28;20053;-67
2023/06/08 18:45:55;;;;;;;4.25;3.30;;;;;;;;;;10122324;28;20068;-68
2023/06/08 18:50:48;;;;;;;4.15;3.03;;;;;;;;;;10140660;28;20410;-67
2023/06/08 18:55:41;;;;;;;5.07;3.65;;;;;;;;;;10138978;28;20084;-67
2023/06/08 19:00:38;;;;;;;3.85;3.42;;;;;;;;;;10150994;28;20136;-67
2023/06/08 19:05:33;;;;;;;3.92;3.53;;;;;;;;;;10152690;28;20048;-67
2023/06/08 19:10:26;;;;;;;4.50;3.47;;;;;;;;;;10152507;28;20392;-68
2023/06/08 19:15:20;;;;;;;4.57;3.67;;;;;;;;;;10152491;28;20045;-67
2023/06/08 19:20:13;;;;;;;3.95;3.22;;;;;;;;;;10149372;28;20094;-67
2023/06/08 19:25:06;;;;;;;4.15;3.75;;;;;;;;;;10151447;28;20064;-68
2023/06/08 19:30:00;;;;;;;5.35;3.20;;;;;;;;;;10151988;28;20052;-66
2023/06/08 19:34:54;;;;;;;8.38;4.65;;;;;;;;;;10151998;28;20157;-67
2023/06/08 19:39:48;;;;;;;7.20;3.55;;;;;;;;;;10151060;28;20416;-67
2023/06/08 19:44:42;;;;;;;4.32;3.92;;;;;;;;;;10150776;28;20082;-67
2023/06/08 19:49:36;;;;;;;6.60;3.88;;;;;;;;;;10150854;28;20467;-67
2023/06/08 19:54:30;;;;;;;5.63;4.10;;;;;;;;;;10125229;28;20148;-67
2023/06/08 19:59:23;;;;;;;6.80;4.15;;;;;;;;;;10122936;28;20052;-67
2023/06/08 20:04:17;;;;;;;8.82;4.78;;;;;;;;;;10150487;28;20487;-67
2023/06/08 20:09:11;;;;;;;5.30;4.80;;;;;;;;;;10127417;28;20133;-67
2023/06/08 20:14:05;;;;;;;8.25;4.82;;;;;;;;;;10150258;28;20051;-67
2023/06/08 20:18:59;;;;;;;6.82;4.80;;;;;;;;;;10149722;28;20076;-67
2023/06/08 20:23:55;;;;;;;8.13;4.68;;;;;;;;;;10150222;28;20052;-67
2023/06/08 20:28:49;;;;;;;6.22;4.75;;;;;;;;;;10139643;28;20157;-67
2023/06/08 20:33:43;;;;;;;8.63;4.93;;;;;;;;;;10128020;28;20052;-67
2023/06/08 20:38:36;;;;;;;5.43;4.93;;;;;;;;;;10137145;28;20048;-67
2023/06/08 20:43:30;;;;;;;5.93;5.10;;;;;;;;;;10148573;28;20059;-67
2023/06/08 20:48:24;;;;;;;7.07;5.15;;;;;;;;;;10137329;28;20410;-67
2023/06/08 20:53:18;;;;;;;5.28;4.78;;;;;;;;;;10123419;28;20064;-67
2023/06/08 20:58:13;;;;;;;6.50;4.70;;;;;;;;;;10147823;28;20131;-67
2023/06/08 21:03:09;;;;;;;8.15;4.65;;;;;;;;;;10148342;28;20059;-67
2023/06/08 21:08:03;;;;;;;6.57;5.18;;;;;;;;;;10136211;28;20127;-67
2023/06/08 21:12:56;;;;;;;10.20;4.60;;;;;;;;;;10147663;28;20041;-68
2023/06/08 21:17:50;;;;;;;5.05;4.35;;;;;;;;;;10147781;28;20048;-67
2023/06/08 21:22:44;;;;;;;5.50;4.20;;;;;;;;;;10147500;28;20057;-67
2023/06/08 21:27:38;;;;;;;4.90;4.40;;;;;;;;;;10147678;28;20080;-66
2023/06/08 21:32:32;;;;;;;7.53;5.43;;;;;;;;;;10135833;28;20541;-67
2023/06/08 21:37:25;;;;;;;6.22;5.63;;;;;;;;;;10145149;28;20051;-67
2023/06/08 21:42:19;;;;;;;5.60;5.00;;;;;;;;;;10144482;28;20417;-67
2023/06/08 21:47:12;;;;;;;6.70;5.20;;;;;;;;;;10145163;28;20523;-67
2023/06/08 21:52:07;;;;;;;8.88;5.57;;;;;;;;;;10122427;28;20102;-68
2023/06/08 21:57:01;;;;;;;7.00;5.07;;;;;;;;;;10134470;28;20445;-67
2023/06/08 22:01:55;;;;;;;7.50;4.72;;;;;;;;;;10111735;28;20052;-68
2023/06/08 22:06:50;;;;;;;6.10;4.53;;;;;;;;;;10125363;28;20044;-67
2023/06/08 22:11:48;;;;;;;5.05;4.55;;;;;;;;;;10134243;28;20049;-67
2023/06/08 22:16:49;;;;;;;4.38;4.00;;;;;;;;;;10145661;28;20127;-68
2023/06/08 22:21:42;;;;;;;5.95;4.30;;;;;;;;;;10145224;28;20510;-67
2023/06/08 22:26:37;;;;;;;8.20;5.35;;;;;;;;;;10145790;28;20060;-67
2023/06/08 22:31:33;;;;;;;8.77;6.28;;;;;;;;;;10145616;28;20191;-67
2023/06/08 22:36:26;;;;;;;7.32;5.60;;;;;;;;;;10145174;28;20049;-67
2023/06/08 22:41:20;;;;;;;5.55;5.03;;;;;;;;;;10145343;28;20056;-67
2023/06/08 22:46:15;;;;;;;7.45;5.10;;;;;;;;;;10142158;28;20044;-66
2023/06/08 22:51:10;;;;;;;7.57;5.28;;;;;;;;;;10135361;28;20052;-67
2023/06/08 22:56:04;;;;;;;6.00;5.40;;;;;;;;;;10144941;28;20076;-66
2023/06/08 23:00:58;;;;;;;6.00;4.78;;;;;;;;;;10144725;28;20061;-66
2023/06/08 23:05:53;;;;;;;5.05;4.55;;;;;;;;;;10142903;28;20429;-67
2023/06/08 23:10:46;;;;;;;9.05;4.15;;;;;;;;;;10145149;28;20529;-66
2023/06/08 23:15:43;;;;;;;7.45;5.68;;;;;;;;;;10144144;28;20049;-67
2023/06/08 23:20:36;;;;;;;4.75;4.25;;;;;;;;;;10137788;28;20064;-67
2023/06/08 23:25:32;;;;;;;4.78;4.28;;;;;;;;;;10128074;28;20068;-66
2023/06/08 23:30:25;;;;;;;6.25;4.45;;;;;;;;;;10145011;28;20152;-66
2023/06/08 23:35:19;;;;;;;5.03;4.38;;;;;;;;;;10147860;28;20048;-66
2023/06/08 23:40:13;;;;;;;8.25;6.30;;;;;;;;;;10151607;28;20057;-66
2023/06/08 23:45:09;;;;;;;9.05;8.25;;;;;;;;;;10145825;28;20079;-67
2023/06/08 23:50:03;;;;;;;10.55;8.52;;;;;;;;;;10130619;28;20056;-66
2023/06/08 23:54:57;;;;;;;8.30;7.50;;;;;;;;;;10143328;28;20053;-67
2023/06/08 23:59:51;;;;;;;10.50;8.48;;;;;;;;;;10138940;28;20061;-66
